Aeroporto :
LOGIN :

Iscrizione | Disclaimer

   EN    FR    IT 

 










Sommario :    VFR   VFR Marginale   IFR   IFR Intensivo   IFR Molto Intensivo
Visibilità : 
Base nubi : 
>= 8 km
>= 3000ft
5 / 8 km
1000 / 3000 ft
1500m / 5 km
500 / 1000 ft
800 / 1500m
200 / 500 ft
< 800m
< 200 ft
Simboli :   Temporali  Nebbia  Neve Forte  Precipitazioni Forti  Vento > 20 kt
SIGMETs :   Varie  Temporali  Ghiacco  Turbolenza  Onda orograficha  Ceneri Vulcaniche






- Altitudine del aeroporto : 245 ft


ETHS - Fassberg

ULTIMO METAR :
  • 221520Z 25005KT 9999 BKN027 13/09 Q1023 BLU

METARs OBSOLETI :
  • 221500Z 24005KT 9999 FEW020 BKN028 13/09 Q1023 BLU FCST CANCEL
  • 221420Z 24007KT 9999 FEW018 BKN027 13/09 Q1023 BLU BLU TEMPO WHT
  • 221350Z 23007KT 9999 FEW018 BKN027 13/09 Q1023 BLU BLU TEMPO WHT
  • 221320Z 23008KT 9999 FEW018 BKN020 13/09 Q1023 WHT BLU TEMPO WHT

TAF AMD TAF ETHS
Valido dal 22 a 14 ore il 22 a 23 ore UTC


221437Z 2214/2223 23005KT 9999 NSW SCT018 BKN030
TEMPO 2214/2217 26008KT 9999 NSW SCT012 BKN015
TEMPO 2217/2223 VRB02KT 3000 MIFG SCT030 SCT130 CANCEL 1500



MetMap, La meteo Aeronautica in un colpo d'occhio ! - Copyright ORBIFLY Dicembre 2007 - Disclaimer

ORBIFLY MET'MAP TEAM :

Programmazione e sviluppo : Alexandra Zaïnal
Concezione e sviluppo : Baudouin d'Aumeries
Co-Programmazione e sviluppo : Marc-Olivier Méhu
Supporto tecnico e logistico : Manuel Goepfert
Aiuto per la traduzione : Arnaldo La Scala

Contatto : metmap@orbifly.com




FONTI E CREDITI :

   NOAA